sensor_id;sensor_type;location;lat;lon;timestamp;P1;durP1;ratioP1;P2;durP2;ratioP2
42146;SDS011;27815;43.410;11.852;2023-09-30T00:01:09;8.07;;;4.28;;
42146;SDS011;27815;43.410;11.852;2023-09-30T00:05:13;6.30;;;4.13;;
42146;SDS011;27815;43.410;11.852;2023-09-30T00:09:17;8.75;;;3.58;;
42146;SDS011;27815;43.410;11.852;2023-09-30T00:13:21;6.65;;;4.03;;
42146;SDS011;27815;43.410;11.852;2023-09-30T00:17:26;6.60;;;3.42;;
42146;SDS011;27815;43.410;11.852;2023-09-30T00:21:29;6.78;;;4.07;;
42146;SDS011;27815;43.410;11.852;2023-09-30T00:25:32;7.38;;;4.40;;
42146;SDS011;27815;43.410;11.852;2023-09-30T00:29:35;6.45;;;3.55;;
42146;SDS011;27815;43.410;11.852;2023-09-30T00:33:38;5.82;;;3.28;;
42146;SDS011;27815;43.410;11.852;2023-09-30T00:37:41;6.60;;;3.50;;
42146;SDS011;27815;43.410;11.852;2023-09-30T00:41:44;7.80;;;3.63;;
42146;SDS011;27815;43.410;11.852;2023-09-30T00:46:48;6.88;;;3.50;;
42146;SDS011;27815;43.410;11.852;2023-09-30T00:50:24;6.78;;;3.55;;
42146;SDS011;27815;43.410;11.852;2023-09-30T00:54:34;6.35;;;4.10;;
42146;SDS011;27815;43.410;11.852;2023-09-30T00:58:39;9.98;;;4.00;;
42146;SDS011;27815;43.410;11.852;2023-09-30T01:02:43;8.20;;;4.13;;
42146;SDS011;27815;43.410;11.852;2023-09-30T01:06:51;8.23;;;4.15;;
42146;SDS011;27815;43.410;11.852;2023-09-30T01:10:56;6.35;;;4.18;;
42146;SDS011;27815;43.410;11.852;2023-09-30T01:15:03;8.48;;;4.15;;
42146;SDS011;27815;43.410;11.852;2023-09-30T01:23:13;8.60;;;3.28;;
42146;SDS011;27815;43.410;11.852;2023-09-30T01:27:16;6.45;;;3.80;;
42146;SDS011;27815;43.410;11.852;2023-09-30T01:31:21;6.68;;;3.72;;
42146;SDS011;27815;43.410;11.852;2023-09-30T01:35:24;6.15;;;4.05;;
42146;SDS011;27815;43.410;11.852;2023-09-30T01:39:27;6.28;;;3.60;;
42146;SDS011;27815;43.410;11.852;2023-09-30T01:43:34;8.98;;;3.60;;
42146;SDS011;27815;43.410;11.852;2023-09-30T01:47:38;7.20;;;4.22;;
42146;SDS011;27815;43.410;11.852;2023-09-30T01:51:41;8.63;;;4.20;;
42146;SDS011;27815;43.410;11.852;2023-09-30T01:55:44;6.40;;;4.20;;
42146;SDS011;27815;43.410;11.852;2023-09-30T01:59:47;8.20;;;4.28;;
42146;SDS011;27815;43.410;11.852;2023-09-30T02:03:51;6.65;;;4.70;;
42146;SDS011;27815;43.410;11.852;2023-09-30T02:07:54;10.82;;;4.78;;
42146;SDS011;27815;43.410;11.852;2023-09-30T02:11:57;11.38;;;4.40;;
42146;SDS011;27815;43.410;11.852;2023-09-30T02:16:00;9.25;;;4.40;;
42146;SDS011;27815;43.410;11.852;2023-09-30T02:20:04;7.68;;;4.05;;
42146;SDS011;27815;43.410;11.852;2023-09-30T02:24:16;7.60;;;4.40;;
42146;SDS011;27815;43.410;11.852;2023-09-30T02:28:19;5.65;;;3.88;;
42146;SDS011;27815;43.410;11.852;2023-09-30T02:32:22;5.82;;;3.88;;
42146;SDS011;27815;43.410;11.852;2023-09-30T02:36:26;6.75;;;3.80;;
42146;SDS011;27815;43.410;11.852;2023-09-30T02:40:29;7.03;;;3.78;;
42146;SDS011;27815;43.410;11.852;2023-09-30T02:44:33;6.15;;;4.15;;
42146;SDS011;27815;43.410;11.852;2023-09-30T02:48:36;6.53;;;3.67;;
42146;SDS011;27815;43.410;11.852;2023-09-30T02:52:39;6.43;;;4.30;;
42146;SDS011;27815;43.410;11.852;2023-09-30T02:56:45;9.48;;;4.05;;
42146;SDS011;27815;43.410;11.852;2023-09-30T03:00:50;7.75;;;3.47;;
42146;SDS011;27815;43.410;11.852;2023-09-30T03:04:54;6.68;;;3.60;;
42146;SDS011;27815;43.410;11.852;2023-09-30T03:09:00;5.13;;;3.00;;
42146;SDS011;27815;43.410;11.852;2023-09-30T03:13:05;6.15;;;3.75;;
42146;SDS011;27815;43.410;11.852;2023-09-30T03:17:08;4.60;;;3.20;;
42146;SDS011;27815;43.410;11.852;2023-09-30T03:21:14;6.78;;;3.45;;
42146;SDS011;27815;43.410;11.852;2023-09-30T03:25:18;5.82;;;3.47;;
42146;SDS011;27815;43.410;11.852;2023-09-30T03:29:22;6.60;;;3.58;;
42146;SDS011;27815;43.410;11.852;2023-09-30T03:33:25;5.35;;;3.65;;
42146;SDS011;27815;43.410;11.852;2023-09-30T03:37:28;8.32;;;3.58;;
42146;SDS011;27815;43.410;11.852;2023-09-30T03:41:33;8.48;;;3.58;;
42146;SDS011;27815;43.410;11.852;2023-09-30T03:45:39;8.98;;;3.92;;
42146;SDS011;27815;43.410;11.852;2023-09-30T03:49:43;9.63;;;3.97;;
42146;SDS011;27815;43.410;11.852;2023-09-30T03:53:46;7.72;;;3.75;;
42146;SDS011;27815;43.410;11.852;2023-09-30T03:57:49;6.53;;;3.70;;
42146;SDS011;27815;43.410;11.852;2023-09-30T04:01:54;9.00;;;3.85;;
42146;SDS011;27815;43.410;11.852;2023-09-30T04:05:57;6.15;;;3.33;;
42146;SDS011;27815;43.410;11.852;2023-09-30T04:10:00;6.15;;;4.07;;
42146;SDS011;27815;43.410;11.852;2023-09-30T04:14:05;7.10;;;4.32;;
42146;SDS011;27815;43.410;11.852;2023-09-30T04:18:10;5.70;;;3.92;;
42146;SDS011;27815;43.410;11.852;2023-09-30T04:22:14;9.75;;;4.13;;
42146;SDS011;27815;43.410;11.852;2023-09-30T04:26:18;7.10;;;3.75;;
42146;SDS011;27815;43.410;11.852;2023-09-30T04:30:21;10.27;;;3.83;;
42146;SDS011;27815;43.410;11.852;2023-09-30T04:34:25;7.25;;;4.15;;
42146;SDS011;27815;43.410;11.852;2023-09-30T04:38:30;7.68;;;3.30;;
42146;SDS011;27815;43.410;11.852;2023-09-30T04:42:34;6.22;;;3.70;;
42146;SDS011;27815;43.410;11.852;2023-09-30T04:46:38;8.27;;;4.63;;
42146;SDS011;27815;43.410;11.852;2023-09-30T04:50:43;6.22;;;4.13;;
42146;SDS011;27815;43.410;11.852;2023-09-30T04:54:46;7.75;;;4.53;;
42146;SDS011;27815;43.410;11.852;2023-09-30T04:58:49;9.15;;;4.70;;
42146;SDS011;27815;43.410;11.852;2023-09-30T05:02:51;7.60;;;4.65;;
42146;SDS011;27815;43.410;11.852;2023-09-30T05:06:55;7.47;;;3.92;;
42146;SDS011;27815;43.410;11.852;2023-09-30T05:10:58;6.43;;;3.97;;
42146;SDS011;27815;43.410;11.852;2023-09-30T05:15:01;6.13;;;4.07;;
42146;SDS011;27815;43.410;11.852;2023-09-30T05:19:07;8.07;;;4.82;;
42146;SDS011;27815;43.410;11.852;2023-09-30T05:23:10;7.18;;;5.00;;
42146;SDS011;27815;43.410;11.852;2023-09-30T05:27:15;7.15;;;4.80;;
42146;SDS011;27815;43.410;11.852;2023-09-30T05:31:19;8.35;;;5.38;;
42146;SDS011;27815;43.410;11.852;2023-09-30T05:35:23;8.90;;;5.30;;
42146;SDS011;27815;43.410;11.852;2023-09-30T05:39:26;8.95;;;5.75;;
42146;SDS011;27815;43.410;11.852;2023-09-30T05:43:31;11.43;;;6.55;;
42146;SDS011;27815;43.410;11.852;2023-09-30T05:47:34;8.77;;;5.43;;
42146;SDS011;27815;43.410;11.852;2023-09-30T05:51:37;10.27;;;5.28;;
42146;SDS011;27815;43.410;11.852;2023-09-30T05:55:41;9.30;;;5.32;;
42146;SDS011;27815;43.410;11.852;2023-09-30T05:59:45;7.03;;;5.10;;
42146;SDS011;27815;43.410;11.852;2023-09-30T06:03:48;6.97;;;4.97;;
42146;SDS011;27815;43.410;11.852;2023-09-30T06:07:51;9.27;;;4.45;;
42146;SDS011;27815;43.410;11.852;2023-09-30T06:11:56;6.63;;;3.70;;
42146;SDS011;27815;43.410;11.852;2023-09-30T06:15:59;10.18;;;4.30;;
42146;SDS011;27815;43.410;11.852;2023-09-30T06:20:05;8.73;;;4.93;;
42146;SDS011;27815;43.410;11.852;2023-09-30T06:24:11;7.47;;;4.75;;
42146;SDS011;27815;43.410;11.852;2023-09-30T06:28:15;11.50;;;5.22;;
42146;SDS011;27815;43.410;11.852;2023-09-30T06:32:18;8.95;;;5.70;;
42146;SDS011;27815;43.410;11.852;2023-09-30T06:36:22;12.52;;;6.97;;
42146;SDS011;27815;43.410;11.852;2023-09-30T06:40:26;10.43;;;5.47;;
42146;SDS011;27815;43.410;11.852;2023-09-30T06:44:29;6.47;;;4.07;;
42146;SDS011;27815;43.410;11.852;2023-09-30T06:48:33;10.23;;;5.85;;
42146;SDS011;27815;43.410;11.852;2023-09-30T06:52:37;8.27;;;5.38;;
42146;SDS011;27815;43.410;11.852;2023-09-30T06:56:42;17.27;;;5.97;;
42146;SDS011;27815;43.410;11.852;2023-09-30T07:00:45;12.05;;;6.90;;
42146;SDS011;27815;43.410;11.852;2023-09-30T07:04:51;19.08;;;12.88;;
42146;SDS011;27815;43.410;11.852;2023-09-30T07:08:56;17.88;;;13.07;;
42146;SDS011;27815;43.410;11.852;2023-09-30T07:13:02;21.63;;;13.93;;
42146;SDS011;27815;43.410;11.852;2023-09-30T07:17:09;19.30;;;14.23;;
42146;SDS011;27815;43.410;11.852;2023-09-30T07:21:14;21.33;;;14.82;;
42146;SDS011;27815;43.410;11.852;2023-09-30T07:25:18;18.73;;;12.07;;
42146;SDS011;27815;43.410;11.852;2023-09-30T07:29:24;15.65;;;10.90;;
42146;SDS011;27815;43.410;11.852;2023-09-30T07:33:53;9.95;;;6.85;;
42146;SDS011;27815;43.410;11.852;2023-09-30T07:37:57;11.73;;;6.75;;
42146;SDS011;27815;43.410;11.852;2023-09-30T07:42:04;10.65;;;6.13;;
42146;SDS011;27815;43.410;11.852;2023-09-30T07:46:31;8.57;;;5.88;;
42146;SDS011;27815;43.410;11.852;2023-09-30T07:50:40;11.13;;;5.88;;
42146;SDS011;27815;43.410;11.852;2023-09-30T07:54:58;10.25;;;6.20;;
42146;SDS011;27815;43.410;11.852;2023-09-30T07:59:36;10.90;;;5.97;;
42146;SDS011;27815;43.410;11.852;2023-09-30T08:03:54;10.30;;;5.82;;
42146;SDS011;27815;43.410;11.852;2023-09-30T08:07:57;7.78;;;5.57;;
42146;SDS011;27815;43.410;11.852;2023-09-30T08:12:04;7.70;;;5.63;;
42146;SDS011;27815;43.410;11.852;2023-09-30T08:16:13;12.65;;;5.20;;
42146;SDS011;27815;43.410;11.852;2023-09-30T08:24:54;12.93;;;4.72;;
42146;SDS011;27815;43.410;11.852;2023-09-30T08:29:08;7.90;;;4.90;;
42146;SDS011;27815;43.410;11.852;2023-09-30T08:33:14;9.13;;;4.43;;
42146;SDS011;27815;43.410;11.852;2023-09-30T08:37:17;6.65;;;4.35;;
42146;SDS011;27815;43.410;11.852;2023-09-30T08:45:34;9.63;;;5.07;;
42146;SDS011;27815;43.410;11.852;2023-09-30T08:49:42;6.00;;;4.25;;
42146;SDS011;27815;43.410;11.852;2023-09-30T08:53:46;6.45;;;4.40;;
42146;SDS011;27815;43.410;11.852;2023-09-30T08:57:52;10.67;;;4.37;;
42146;SDS011;27815;43.410;11.852;2023-09-30T09:01:55;8.30;;;4.38;;
42146;SDS011;27815;43.410;11.852;2023-09-30T09:05:59;5.90;;;3.80;;
42146;SDS011;27815;43.410;11.852;2023-09-30T09:10:05;8.20;;;4.20;;
42146;SDS011;27815;43.410;11.852;2023-09-30T09:14:11;8.63;;;4.22;;
42146;SDS011;27815;43.410;11.852;2023-09-30T09:18:33;9.88;;;3.92;;
42146;SDS011;27815;43.410;11.852;2023-09-30T09:22:44;7.20;;;3.95;;
42146;SDS011;27815;43.410;11.852;2023-09-30T09:26:47;5.93;;;3.38;;
42146;SDS011;27815;43.410;11.852;2023-09-30T09:30:51;6.25;;;4.13;;
42146;SDS011;27815;43.410;11.852;2023-09-30T09:35:01;7.68;;;3.70;;
42146;SDS011;27815;43.410;11.852;2023-09-30T09:39:05;6.75;;;3.78;;
42146;SDS011;27815;43.410;11.852;2023-09-30T09:43:09;6.07;;;3.83;;
42146;SDS011;27815;43.410;11.852;2023-09-30T09:47:12;5.32;;;3.60;;
42146;SDS011;27815;43.410;11.852;2023-09-30T09:51:16;6.00;;;3.72;;
42146;SDS011;27815;43.410;11.852;2023-09-30T09:55:22;8.10;;;4.45;;
42146;SDS011;27815;43.410;11.852;2023-09-30T09:59:25;11.32;;;4.30;;
42146;SDS011;27815;43.410;11.852;2023-09-30T10:03:29;6.70;;;3.67;;
42146;SDS011;27815;43.410;11.852;2023-09-30T10:07:37;6.57;;;3.97;;
42146;SDS011;27815;43.410;11.852;2023-09-30T10:11:44;5.72;;;3.50;;
42146;SDS011;27815;43.410;11.852;2023-09-30T10:15:47;7.60;;;4.68;;
42146;SDS011;27815;43.410;11.852;2023-09-30T10:20:04;6.20;;;3.97;;
42146;SDS011;27815;43.410;11.852;2023-09-30T10:28:37;8.53;;;4.50;;
42146;SDS011;27815;43.410;11.852;2023-09-30T10:36:53;6.80;;;3.25;;
42146;SDS011;27815;43.410;11.852;2023-09-30T10:40:56;5.82;;;3.33;;
42146;SDS011;27815;43.410;11.852;2023-09-30T10:44:59;6.70;;;3.50;;
42146;SDS011;27815;43.410;11.852;2023-09-30T10:49:16;6.93;;;3.85;;
42146;SDS011;27815;43.410;11.852;2023-09-30T10:53:33;6.28;;;3.60;;
42146;SDS011;27815;43.410;11.852;2023-09-30T10:57:37;8.93;;;3.45;;
42146;SDS011;27815;43.410;11.852;2023-09-30T11:01:41;8.18;;;3.78;;
42146;SDS011;27815;43.410;11.852;2023-09-30T11:05:47;4.90;;;3.15;;
42146;SDS011;27815;43.410;11.852;2023-09-30T11:10:17;7.35;;;3.40;;
42146;SDS011;27815;43.410;11.852;2023-09-30T11:14:22;6.32;;;3.72;;
42146;SDS011;27815;43.410;11.852;2023-09-30T11:18:32;6.18;;;3.38;;
42146;SDS011;27815;43.410;11.852;2023-09-30T11:22:50;5.75;;;3.10;;
42146;SDS011;27815;43.410;11.852;2023-09-30T11:26:53;6.55;;;3.55;;
42146;SDS011;27815;43.410;11.852;2023-09-30T11:31:00;5.28;;;3.03;;
42146;SDS011;27815;43.410;11.852;2023-09-30T11:35:23;6.85;;;3.58;;
42146;SDS011;27815;43.410;11.852;2023-09-30T11:39:27;6.13;;;3.08;;
42146;SDS011;27815;43.410;11.852;2023-09-30T11:44:02;7.15;;;2.95;;
42146;SDS011;27815;43.410;11.852;2023-09-30T11:48:19;6.47;;;2.92;;
42146;SDS011;27815;43.410;11.852;2023-09-30T11:52:26;8.80;;;2.78;;
42146;SDS011;27815;43.410;11.852;2023-09-30T11:56:35;7.65;;;2.88;;
42146;SDS011;27815;43.410;11.852;2023-09-30T12:00:42;5.93;;;3.00;;
42146;SDS011;27815;43.410;11.852;2023-09-30T12:04:45;4.78;;;2.85;;
42146;SDS011;27815;43.410;11.852;2023-09-30T12:08:52;5.63;;;2.75;;
42146;SDS011;27815;43.410;11.852;2023-09-30T12:12:57;3.88;;;2.40;;
42146;SDS011;27815;43.410;11.852;2023-09-30T12:17:00;7.07;;;3.00;;
42146;SDS011;27815;43.410;11.852;2023-09-30T12:21:05;7.57;;;3.17;;
42146;SDS011;27815;43.410;11.852;2023-09-30T12:25:15;5.78;;;2.80;;
42146;SDS011;27815;43.410;11.852;2023-09-30T12:29:42;4.40;;;2.30;;
42146;SDS011;27815;43.410;11.852;2023-09-30T12:34:07;5.90;;;2.65;;
42146;SDS011;27815;43.410;11.852;2023-09-30T12:38:41;6.15;;;2.50;;
42146;SDS011;27815;43.410;11.852;2023-09-30T12:42:54;8.02;;;2.47;;
42146;SDS011;27815;43.410;11.852;2023-09-30T12:47:09;5.47;;;2.80;;
42146;SDS011;27815;43.410;11.852;2023-09-30T12:51:21;4.50;;;2.38;;
42146;SDS011;27815;43.410;11.852;2023-09-30T12:55:52;6.93;;;2.25;;
42146;SDS011;27815;43.410;11.852;2023-09-30T13:00:21;4.93;;;2.53;;
42146;SDS011;27815;43.410;11.852;2023-09-30T13:04:36;4.53;;;2.03;;
42146;SDS011;27815;43.410;11.852;2023-09-30T13:08:44;4.30;;;1.98;;
42146;SDS011;27815;43.410;11.852;2023-09-30T13:12:51;5.82;;;2.13;;
42146;SDS011;27815;43.410;11.852;2023-09-30T13:21:00;6.35;;;2.22;;
42146;SDS011;27815;43.410;11.852;2023-09-30T13:25:04;4.95;;;2.17;;
42146;SDS011;27815;43.410;11.852;2023-09-30T13:29:08;9.00;;;2.38;;
42146;SDS011;27815;43.410;11.852;2023-09-30T13:33:14;5.50;;;2.05;;
42146;SDS011;27815;43.410;11.852;2023-09-30T13:37:17;3.85;;;2.10;;
42146;SDS011;27815;43.410;11.852;2023-09-30T13:41:21;4.05;;;1.98;;
42146;SDS011;27815;43.410;11.852;2023-09-30T13:45:24;5.63;;;2.10;;
42146;SDS011;27815;43.410;11.852;2023-09-30T13:49:31;5.25;;;2.00;;
42146;SDS011;27815;43.410;11.852;2023-09-30T13:53:36;4.25;;;2.15;;
42146;SDS011;27815;43.410;11.852;2023-09-30T13:57:45;4.47;;;2.13;;
42146;SDS011;27815;43.410;11.852;2023-09-30T14:01:49;5.70;;;2.20;;
42146;SDS011;27815;43.410;11.852;2023-09-30T14:06:02;4.72;;;1.85;;
42146;SDS011;27815;43.410;11.852;2023-09-30T14:10:24;4.88;;;1.85;;
42146;SDS011;27815;43.410;11.852;2023-09-30T14:14:27;10.68;;;5.97;;
42146;SDS011;27815;43.410;11.852;2023-09-30T14:18:30;5.43;;;2.33;;
42146;SDS011;27815;43.410;11.852;2023-09-30T14:22:36;7.32;;;2.13;;
42146;SDS011;27815;43.410;11.852;2023-09-30T14:26:39;4.93;;;1.95;;
42146;SDS011;27815;43.410;11.852;2023-09-30T14:30:42;5.15;;;2.20;;
42146;SDS011;27815;43.410;11.852;2023-09-30T14:39:35;8.07;;;2.20;;
42146;SDS011;27815;43.410;11.852;2023-09-30T14:43:42;7.85;;;2.40;;
42146;SDS011;27815;43.410;11.852;2023-09-30T14:47:50;3.78;;;1.85;;
42146;SDS011;27815;43.410;11.852;2023-09-30T14:52:17;6.80;;;2.60;;
42146;SDS011;27815;43.410;11.852;2023-09-30T14:56:35;6.28;;;1.98;;
42146;SDS011;27815;43.410;11.852;2023-09-30T15:00:57;6.10;;;1.90;;
42146;SDS011;27815;43.410;11.852;2023-09-30T15:05:03;4.82;;;2.38;;
42146;SDS011;27815;43.410;11.852;2023-09-30T15:09:07;5.97;;;1.90;;
42146;SDS011;27815;43.410;11.852;2023-09-30T15:13:19;5.65;;;1.95;;
42146;SDS011;27815;43.410;11.852;2023-09-30T15:17:22;13.50;;;2.85;;
42146;SDS011;27815;43.410;11.852;2023-09-30T15:21:25;5.65;;;1.80;;
42146;SDS011;27815;43.410;11.852;2023-09-30T15:25:28;7.18;;;1.80;;
42146;SDS011;27815;43.410;11.852;2023-09-30T15:29:32;4.22;;;1.67;;
42146;SDS011;27815;43.410;11.852;2023-09-30T15:33:35;3.88;;;1.83;;
42146;SDS011;27815;43.410;11.852;2023-09-30T15:37:39;5.20;;;1.90;;
42146;SDS011;27815;43.410;11.852;2023-09-30T15:41:42;3.90;;;1.77;;
42146;SDS011;27815;43.410;11.852;2023-09-30T15:45:51;3.67;;;1.63;;
42146;SDS011;27815;43.410;11.852;2023-09-30T15:49:56;2.95;;;1.52;;
42146;SDS011;27815;43.410;11.852;2023-09-30T15:53:58;3.60;;;1.95;;
42146;SDS011;27815;43.410;11.852;2023-09-30T15:58:02;2.67;;;1.40;;
42146;SDS011;27815;43.410;11.852;2023-09-30T16:02:06;3.38;;;1.63;;
42146;SDS011;27815;43.410;11.852;2023-09-30T16:06:10;3.47;;;1.60;;
42146;SDS011;27815;43.410;11.852;2023-09-30T16:10:13;3.83;;;1.70;;
42146;SDS011;27815;43.410;11.852;2023-09-30T16:14:17;3.30;;;1.50;;
42146;SDS011;27815;43.410;11.852;2023-09-30T16:18:23;2.58;;;1.50;;
42146;SDS011;27815;43.410;11.852;2023-09-30T16:22:28;5.63;;;1.55;;
42146;SDS011;27815;43.410;11.852;2023-09-30T16:26:36;3.65;;;1.48;;
42146;SDS011;27815;43.410;11.852;2023-09-30T16:30:40;4.35;;;1.65;;
42146;SDS011;27815;43.410;11.852;2023-09-30T16:34:46;3.20;;;1.27;;
42146;SDS011;27815;43.410;11.852;2023-09-30T16:38:50;3.72;;;1.48;;
42146;SDS011;27815;43.410;11.852;2023-09-30T16:42:53;4.35;;;1.67;;
42146;SDS011;27815;43.410;11.852;2023-09-30T16:46:58;5.72;;;1.90;;
42146;SDS011;27815;43.410;11.852;2023-09-30T16:51:02;3.83;;;1.50;;
42146;SDS011;27815;43.410;11.852;2023-09-30T16:55:08;3.97;;;1.75;;
42146;SDS011;27815;43.410;11.852;2023-09-30T16:59:14;3.88;;;1.80;;
42146;SDS011;27815;43.410;11.852;2023-09-30T17:03:21;4.93;;;1.90;;
42146;SDS011;27815;43.410;11.852;2023-09-30T17:07:27;3.58;;;1.95;;
42146;SDS011;27815;43.410;11.852;2023-09-30T17:11:30;4.60;;;1.70;;
42146;SDS011;27815;43.410;11.852;2023-09-30T17:15:33;5.47;;;2.00;;
42146;SDS011;27815;43.410;11.852;2023-09-30T17:19:38;8.25;;;1.85;;
42146;SDS011;27815;43.410;11.852;2023-09-30T17:23:42;3.75;;;2.00;;
42146;SDS011;27815;43.410;11.852;2023-09-30T17:27:47;3.47;;;1.92;;
42146;SDS011;27815;43.410;11.852;2023-09-30T17:31:50;7.93;;;2.10;;
42146;SDS011;27815;43.410;11.852;2023-09-30T17:35:58;4.63;;;2.20;;
42146;SDS011;27815;43.410;11.852;2023-09-30T17:40:02;3.95;;;1.90;;
42146;SDS011;27815;43.410;11.852;2023-09-30T17:44:09;12.25;;;1.90;;
42146;SDS011;27815;43.410;11.852;2023-09-30T17:48:13;4.53;;;2.47;;
42146;SDS011;27815;43.410;11.852;2023-09-30T17:52:19;8.00;;;3.03;;
42146;SDS011;27815;43.410;11.852;2023-09-30T17:56:21;4.13;;;2.33;;
42146;SDS011;27815;43.410;11.852;2023-09-30T18:00:26;8.38;;;2.63;;
42146;SDS011;27815;43.410;11.852;2023-09-30T18:04:29;6.05;;;2.45;;
42146;SDS011;27815;43.410;11.852;2023-09-30T18:08:33;4.80;;;2.70;;
42146;SDS011;27815;43.410;11.852;2023-09-30T18:12:37;3.47;;;2.17;;
42146;SDS011;27815;43.410;11.852;2023-09-30T18:16:41;4.75;;;2.40;;
42146;SDS011;27815;43.410;11.852;2023-09-30T18:20:46;5.18;;;2.28;;
42146;SDS011;27815;43.410;11.852;2023-09-30T18:24:49;5.63;;;2.40;;
42146;SDS011;27815;43.410;11.852;2023-09-30T18:28:53;6.22;;;2.88;;
42146;SDS011;27815;43.410;11.852;2023-09-30T18:32:57;4.45;;;2.10;;
42146;SDS011;27815;43.410;11.852;2023-09-30T18:37:00;5.30;;;2.40;;
42146;SDS011;27815;43.410;11.852;2023-09-30T18:41:10;5.97;;;2.38;;
42146;SDS011;27815;43.410;11.852;2023-09-30T18:45:16;3.75;;;2.20;;
42146;SDS011;27815;43.410;11.852;2023-09-30T18:49:21;4.45;;;2.15;;
42146;SDS011;27815;43.410;11.852;2023-09-30T18:53:27;3.95;;;2.00;;
42146;SDS011;27815;43.410;11.852;2023-09-30T18:57:30;3.40;;;2.10;;
42146;SDS011;27815;43.410;11.852;2023-09-30T19:01:33;4.30;;;2.55;;
42146;SDS011;27815;43.410;11.852;2023-09-30T19:05:36;5.68;;;2.47;;
42146;SDS011;27815;43.410;11.852;2023-09-30T19:09:40;5.40;;;2.88;;
42146;SDS011;27815;43.410;11.852;2023-09-30T19:13:44;4.72;;;2.72;;
42146;SDS011;27815;43.410;11.852;2023-09-30T19:17:48;5.15;;;2.67;;
42146;SDS011;27815;43.410;11.852;2023-09-30T19:21:51;5.55;;;2.72;;
42146;SDS011;27815;43.410;11.852;2023-09-30T19:25:54;6.97;;;2.80;;
42146;SDS011;27815;43.410;11.852;2023-09-30T19:29:56;4.88;;;2.30;;
42146;SDS011;27815;43.410;11.852;2023-09-30T19:34:00;4.85;;;2.47;;
42146;SDS011;27815;43.410;11.852;2023-09-30T19:38:03;6.00;;;2.53;;
42146;SDS011;27815;43.410;11.852;2023-09-30T19:42:06;5.65;;;2.20;;
42146;SDS011;27815;43.410;11.852;2023-09-30T19:46:09;4.60;;;2.70;;
42146;SDS011;27815;43.410;11.852;2023-09-30T19:50:14;4.53;;;2.35;;
42146;SDS011;27815;43.410;11.852;2023-09-30T19:54:17;5.70;;;2.80;;
42146;SDS011;27815;43.410;11.852;2023-09-30T19:58:20;3.80;;;2.00;;
42146;SDS011;27815;43.410;11.852;2023-09-30T20:02:25;4.65;;;2.47;;
42146;SDS011;27815;43.410;11.852;2023-09-30T20:06:28;4.25;;;2.35;;
42146;SDS011;27815;43.410;11.852;2023-09-30T20:10:31;4.93;;;2.70;;
42146;SDS011;27815;43.410;11.852;2023-09-30T20:14:35;6.10;;;2.45;;
42146;SDS011;27815;43.410;11.852;2023-09-30T20:18:38;5.20;;;2.50;;
42146;SDS011;27815;43.410;11.852;2023-09-30T20:22:42;4.47;;;2.40;;
42146;SDS011;27815;43.410;11.852;2023-09-30T20:26:45;4.35;;;2.30;;
42146;SDS011;27815;43.410;11.852;2023-09-30T20:30:48;7.22;;;2.70;;
42146;SDS011;27815;43.410;11.852;2023-09-30T20:34:51;3.90;;;2.28;;
42146;SDS011;27815;43.410;11.852;2023-09-30T20:38:54;4.72;;;2.50;;
42146;SDS011;27815;43.410;11.852;2023-09-30T20:42:58;5.30;;;2.58;;
42146;SDS011;27815;43.410;11.852;2023-09-30T20:47:01;4.93;;;2.67;;
42146;SDS011;27815;43.410;11.852;2023-09-30T20:51:05;4.38;;;2.40;;
42146;SDS011;27815;43.410;11.852;2023-09-30T20:55:09;4.40;;;2.10;;
42146;SDS011;27815;43.410;11.852;2023-09-30T20:59:13;5.07;;;2.63;;
42146;SDS011;27815;43.410;11.852;2023-09-30T21:03:16;7.07;;;2.50;;
42146;SDS011;27815;43.410;11.852;2023-09-30T21:07:20;4.18;;;2.22;;
42146;SDS011;27815;43.410;11.852;2023-09-30T21:11:22;4.20;;;2.55;;
42146;SDS011;27815;43.410;11.852;2023-09-30T21:15:25;4.78;;;2.55;;
42146;SDS011;27815;43.410;11.852;2023-09-30T21:19:29;4.30;;;2.30;;
42146;SDS011;27815;43.410;11.852;2023-09-30T21:23:32;3.80;;;2.05;;
42146;SDS011;27815;43.410;11.852;2023-09-30T21:27:34;3.92;;;2.15;;
42146;SDS011;27815;43.410;11.852;2023-09-30T21:31:37;6.88;;;2.60;;
42146;SDS011;27815;43.410;11.852;2023-09-30T21:35:41;5.13;;;2.50;;
42146;SDS011;27815;43.410;11.852;2023-09-30T21:39:44;8.05;;;2.88;;
42146;SDS011;27815;43.410;11.852;2023-09-30T21:43:47;5.40;;;2.13;;
42146;SDS011;27815;43.410;11.852;2023-09-30T21:47:50;5.18;;;2.90;;
42146;SDS011;27815;43.410;11.852;2023-09-30T21:51:53;4.45;;;2.70;;
42146;SDS011;27815;43.410;11.852;2023-09-30T21:55:56;6.85;;;3.28;;
42146;SDS011;27815;43.410;11.852;2023-09-30T21:59:59;7.65;;;3.05;;
42146;SDS011;27815;43.410;11.852;2023-09-30T22:04:11;4.88;;;2.78;;
42146;SDS011;27815;43.410;11.852;2023-09-30T22:08:14;9.40;;;3.38;;
42146;SDS011;27815;43.410;11.852;2023-09-30T22:12:24;6.90;;;2.70;;
42146;SDS011;27815;43.410;11.852;2023-09-30T22:16:28;7.05;;;3.70;;
42146;SDS011;27815;43.410;11.852;2023-09-30T22:20:34;6.90;;;3.60;;
42146;SDS011;27815;43.410;11.852;2023-09-30T22:24:37;6.25;;;3.28;;
42146;SDS011;27815;43.410;11.852;2023-09-30T22:28:40;6.03;;;3.45;;
42146;SDS011;27815;43.410;11.852;2023-09-30T22:32:43;6.28;;;3.20;;
42146;SDS011;27815;43.410;11.852;2023-09-30T22:36:46;7.72;;;3.10;;
42146;SDS011;27815;43.410;11.852;2023-09-30T22:40:49;6.93;;;3.58;;
42146;SDS011;27815;43.410;11.852;2023-09-30T22:44:52;5.43;;;3.72;;
42146;SDS011;27815;43.410;11.852;2023-09-30T22:48:55;5.82;;;4.03;;
42146;SDS011;27815;43.410;11.852;2023-09-30T22:53:00;6.15;;;4.00;;
42146;SDS011;27815;43.410;11.852;2023-09-30T22:57:03;6.78;;;3.85;;
42146;SDS011;27815;43.410;11.852;2023-09-30T23:01:06;10.40;;;3.35;;
42146;SDS011;27815;43.410;11.852;2023-09-30T23:05:14;7.22;;;3.55;;
42146;SDS011;27815;43.410;11.852;2023-09-30T23:09:20;6.60;;;3.33;;
42146;SDS011;27815;43.410;11.852;2023-09-30T23:13:24;9.45;;;3.42;;
42146;SDS011;27815;43.410;11.852;2023-09-30T23:17:27;6.03;;;2.88;;
42146;SDS011;27815;43.410;11.852;2023-09-30T23:21:30;6.90;;;3.22;;
42146;SDS011;27815;43.410;11.852;2023-09-30T23:25:33;6.15;;;2.60;;
42146;SDS011;27815;43.410;11.852;2023-09-30T23:29:37;7.10;;;3.22;;
42146;SDS011;27815;43.410;11.852;2023-09-30T23:33:41;6.65;;;3.35;;
42146;SDS011;27815;43.410;11.852;2023-09-30T23:37:50;7.95;;;2.85;;
42146;SDS011;27815;43.410;11.852;2023-09-30T23:41:55;5.22;;;3.13;;
42146;SDS011;27815;43.410;11.852;2023-09-30T23:45:58;8.15;;;3.33;;
42146;SDS011;27815;43.410;11.852;2023-09-30T23:50:01;7.40;;;3.63;;
42146;SDS011;27815;43.410;11.852;2023-09-30T23:54:06;16.95;;;9.30;;
42146;SDS011;27815;43.410;11.852;2023-09-30T23:58:13;7.60;;;3.80;;
